Time;durP1;ratioP1;P1;durP2;ratioP2;P2;SDS_P1;SDS_P2;PMS_P1;PMS_P2;Temp;Humidity;BMP_temperature;BMP_pressure;BME280_temperature;BME280_humidity;BME280_pressure;Samples;Min_cycle;Max_cycle;Signal;HPM_P1;HPM_P2
2022/12/07 00:01:35;;;;;;;24.23;17.42;;;;;;;;;;5053524;28;20309;-73
2022/12/07 00:04:05;;;;;;;25.52;17.48;;;;;;;;;;5053404;28;20045;-73
2022/12/07 00:06:33;;;;;;;27.88;17.45;;;;;;;;;;5053402;28;20084;-73
2022/12/07 00:08:59;;;;;;;24.08;16.45;;;;;;;;;;5053669;28;20156;-73
2022/12/07 00:11:26;;;;;;;23.33;17.33;;;;;;;;;;5053258;28;20088;-73
2022/12/07 00:13:53;;;;;;;24.80;17.55;;;;;;;;;;5053468;28;20048;-73
2022/12/07 00:16:21;;;;;;;24.45;16.98;;;;;;;;;;5053186;28;20535;-73
2022/12/07 00:18:48;;;;;;;;;;;;;;;;;;5052279;28;20072;-73
2022/12/07 00:21:16;;;;;;;22.58;17.83;;;;;;;;;;5052878;28;19968;-74
2022/12/07 00:23:43;;;;;;;24.27;17.58;;;;;;;;;;5053025;28;20132;-73
2022/12/07 00:26:11;;;;;;;26.77;18.25;;;;;;;;;;5053022;28;20128;-73
2022/12/07 00:28:37;;;;;;;19.13;15.38;;;;;;;;;;5053059;28;20088;-73
2022/12/07 00:31:05;;;;;;;22.38;17.52;;;;;;;;;;5053151;28;20045;-73
2022/12/07 00:33:32;;;;;;;21.17;16.30;;;;;;;;;;5050468;28;20053;-73
2022/12/07 00:35:59;;;;;;;22.45;17.35;;;;;;;;;;5051002;28;20087;-73
2022/12/07 00:38:27;;;;;;;21.67;16.23;;;;;;;;;;5052558;28;20471;-73
2022/12/07 00:40:53;;;;;;;;;;;;;;;;;;5053048;28;20476;-73
2022/12/07 00:43:19;;;;;;;22.25;16.48;;;;;;;;;;5051192;28;19924;-73
2022/12/07 00:45:46;;;;;;;20.73;16.85;;;;;;;;;;5052557;28;20489;-73
2022/12/07 00:48:12;;;;;;;24.88;18.83;;;;;;;;;;5052604;28;20073;-73
2022/12/07 00:50:39;;;;;;;20.75;17.27;;;;;;;;;;5051401;28;20132;-72
2022/12/07 00:53:05;;;;;;;27.15;17.90;;;;;;;;;;5051135;28;20049;-73
2022/12/07 00:55:35;;;;;;;22.70;17.98;;;;;;;;;;5052695;28;20057;-73
2022/12/07 00:58:02;;;;;;;21.35;17.50;;;;;;;;;;5052205;28;20128;-73
2022/12/07 01:00:29;;;;;;;24.17;16.92;;;;;;;;;;5052482;28;20471;-73
2022/12/07 01:02:55;;;;;;;23.50;17.33;;;;;;;;;;5052227;28;20127;-72
2022/12/07 01:05:22;;;;;;;24.08;16.73;;;;;;;;;;5052095;28;20041;-72
2022/12/07 01:07:48;;;;;;;21.45;16.17;;;;;;;;;;5052592;28;20488;-72
2022/12/07 01:10:15;;;;;;;23.88;16.67;;;;;;;;;;5052474;28;20048;-73
2022/12/07 01:12:41;;;;;;;22.38;16.45;;;;;;;;;;5052123;28;20135;-73
2022/12/07 01:15:08;;;;;;;22.63;16.80;;;;;;;;;;5052058;28;20071;-73
2022/12/07 01:17:34;;;;;;;25.48;16.67;;;;;;;;;;5050827;28;20531;-73
2022/12/07 01:20:01;;;;;;;24.50;17.27;;;;;;;;;;5051914;28;20096;-73
2022/12/07 01:22:28;;;;;;;22.38;16.60;;;;;;;;;;5051756;28;20075;-73
2022/12/07 01:24:54;;;;;;;24.90;16.88;;;;;;;;;;5052293;28;20104;-73
2022/12/07 01:27:21;;;;;;;22.73;16.80;;;;;;;;;;5051843;28;20049;-73
2022/12/07 01:29:47;;;;;;;23.15;17.35;;;;;;;;;;5051885;28;20091;-73
2022/12/07 01:32:14;;;;;;;24.40;17.00;;;;;;;;;;5050644;28;20128;-73
2022/12/07 01:34:40;;;;;;;23.98;16.98;;;;;;;;;;5051793;28;20167;-73
2022/12/07 01:37:06;;;;;;;27.50;17.58;;;;;;;;;;5052026;28;20049;-73
2022/12/07 01:39:33;;;;;;;24.23;16.67;;;;;;;;;;5051625;28;20553;-73
2022/12/07 01:41:59;;;;;;;26.60;17.20;;;;;;;;;;5051786;28;20124;-73
2022/12/07 01:44:27;;;;;;;23.88;16.08;;;;;;;;;;5051850;28;20136;-73
2022/12/07 01:46:55;;;;;;;28.27;16.95;;;;;;;;;;5050674;28;20132;-73
2022/12/07 01:49:22;;;;;;;25.83;17.23;;;;;;;;;;5050724;28;20061;-73
2022/12/07 01:51:49;;;;;;;24.13;17.17;;;;;;;;;;5051868;28;20119;-73
2022/12/07 01:54:16;;;;;;;23.85;16.52;;;;;;;;;;5051719;28;20151;-73
2022/12/07 01:56:45;;;;;;;21.92;16.58;;;;;;;;;;5051584;28;20045;-73
2022/12/07 01:59:13;;;;;;;22.00;16.23;;;;;;;;;;5051440;28;20472;-73
2022/12/07 02:01:39;;;;;;;22.92;16.13;;;;;;;;;;5051382;28;20087;-72
2022/12/07 02:04:06;;;;;;;26.23;16.95;;;;;;;;;;5051661;28;20102;-73
2022/12/07 02:06:33;;;;;;;21.65;16.00;;;;;;;;;;5051584;28;20451;-73
2022/12/07 02:08:59;;;;;;;23.90;16.15;;;;;;;;;;5051475;28;20080;-72
2022/12/07 02:11:25;;;;;;;22.88;16.33;;;;;;;;;;5050401;28;20106;-72
2022/12/07 02:13:53;;;;;;;22.90;15.93;;;;;;;;;;5051357;28;20140;-72
2022/12/07 02:16:26;;;;;;;21.77;15.50;;;;;;;;;;5051299;28;20556;-73
2022/12/07 02:19:11;;;;;;;23.38;16.48;;;;;;;;;;5037355;28;20041;-73
2022/12/07 02:21:44;;;;;;;21.70;16.13;;;;;;;;;;5051362;28;20527;-73
2022/12/07 02:24:30;;;;;;;21.50;15.65;;;;;;;;;;5051258;28;20048;-73
2022/12/07 02:26:59;;;;;;;24.77;16.17;;;;;;;;;;5051215;28;20080;-73
2022/12/07 02:29:30;;;;;;;21.98;15.73;;;;;;;;;;5051503;28;20163;-73
2022/12/07 02:32:03;;;;;;;24.40;15.80;;;;;;;;;;5051389;28;20080;-73
2022/12/07 02:34:38;;;;;;;21.27;15.38;;;;;;;;;;5051519;28;20055;-73
2022/12/07 02:37:09;;;;;;;21.42;16.23;;;;;;;;;;5051351;28;20132;-73
2022/12/07 02:39:51;;;;;;;23.63;15.55;;;;;;;;;;5051236;28;20094;-73
2022/12/07 02:42:22;;;;;;;23.48;16.02;;;;;;;;;;5050984;28;20567;-73
2022/12/07 02:44:50;;;;;;;24.92;16.58;;;;;;;;;;5051350;28;20037;-73
2022/12/07 02:47:17;;;;;;;22.65;16.15;;;;;;;;;;5051121;28;20045;-72
2022/12/07 02:49:44;;;;;;;22.52;17.23;;;;;;;;;;5050919;28;20132;-73
2022/12/07 02:52:10;;;;;;;22.20;16.02;;;;;;;;;;5051022;28;20569;-73
2022/12/07 02:54:37;;;;;;;21.33;15.40;;;;;;;;;;5051078;28;20157;-72
2022/12/07 02:57:11;;;;;;;23.73;16.20;;;;;;;;;;5050983;28;20548;-73
2022/12/07 02:59:56;;;;;;;25.92;15.23;;;;;;;;;;5052082;28;20506;-73
2022/12/07 03:02:41;;;;;;;25.02;15.48;;;;;;;;;;5054613;28;20084;-73
2022/12/07 03:05:28;;;;;;;22.73;15.88;;;;;;;;;;5054546;28;20051;-73
2022/12/07 03:08:15;;;;;;;21.60;15.90;;;;;;;;;;5054625;28;20126;-72
2022/12/07 03:10:41;;;;;;;20.83;15.10;;;;;;;;;;5053335;28;20049;-72
2022/12/07 03:13:08;;;;;;;23.20;16.20;;;;;;;;;;5054443;28;20132;-73
2022/12/07 03:15:45;;;;;;;19.58;13.93;;;;;;;;;;5054293;28;20128;-73
2022/12/07 03:18:12;;;;;;;;;;;;;;;;;;5055018;28;20401;-73
2022/12/07 03:20:40;;;;;;;21.23;14.50;;;;;;;;;;5054522;28;20023;-73
2022/12/07 03:23:09;;;;;;;21.80;14.90;;;;;;;;;;5054175;28;20156;-73
2022/12/07 03:25:39;;;;;;;21.85;15.68;;;;;;;;;;5054129;28;20084;-73
2022/12/07 03:28:06;;;;;;;24.15;16.05;;;;;;;;;;5054492;28;20055;-73
2022/12/07 03:30:38;;;;;;;23.33;16.30;;;;;;;;;;5052753;28;20555;-73
2022/12/07 03:33:13;;;;;;;22.27;16.23;;;;;;;;;;5054100;28;20488;-73
2022/12/07 03:35:42;;;;;;;20.67;15.30;;;;;;;;;;5053986;28;20128;-73
2022/12/07 03:38:35;;;;;;;19.92;14.70;;;;;;;;;;5053972;28;20041;-73
2022/12/07 03:41:08;;;;;;;23.08;15.02;;;;;;;;;;5051460;28;20131;-73
2022/12/07 03:43:35;;;;;;;21.50;14.88;;;;;;;;;;5053846;28;20526;-73
2022/12/07 03:46:05;;;;;;;20.45;15.65;;;;;;;;;;5053717;28;20506;-73
2022/12/07 03:48:43;;;;;;;22.70;15.80;;;;;;;;;;5052608;28;20052;-73
2022/12/07 03:51:09;;;;;;;;;;;;;;;;;;5053041;28;20132;-73
2022/12/07 03:53:35;;;;;;;25.10;16.20;;;;;;;;;;5053543;28;20023;-73
2022/12/07 03:56:03;;;;;;;23.30;15.88;;;;;;;;;;5053900;28;20057;-73
2022/12/07 03:58:29;;;;;;;21.57;15.47;;;;;;;;;;5053445;28;20063;-73
2022/12/07 04:00:56;;;;;;;21.05;15.60;;;;;;;;;;5052536;28;20311;-73
2022/12/07 04:03:22;;;;;;;22.83;15.90;;;;;;;;;;5053473;28;20091;-73
2022/12/07 04:05:49;;;;;;;23.58;16.48;;;;;;;;;;5053740;28;20056;-73
2022/12/07 04:08:15;;;;;;;20.50;14.93;;;;;;;;;;5053298;28;20049;-73
2022/12/07 04:10:41;;;;;;;22.63;15.07;;;;;;;;;;5052719;28;20508;-73
2022/12/07 04:13:08;;;;;;;23.27;15.77;;;;;;;;;;5053268;28;20052;-73
2022/12/07 04:15:34;;;;;;;20.92;15.75;;;;;;;;;;5053475;28;20102;-73
2022/12/07 04:18:01;;;;;;;22.77;15.13;;;;;;;;;;5053171;28;20479;-73
2022/12/07 04:20:27;;;;;;;25.75;16.63;;;;;;;;;;5053142;28;20049;-73
2022/12/07 04:22:54;;;;;;;26.23;16.08;;;;;;;;;;5052977;28;20063;-73
2022/12/07 04:25:20;;;;;;;25.38;16.10;;;;;;;;;;5052936;28;20056;-73
2022/12/07 04:27:46;;;;;;;23.73;16.52;;;;;;;;;;5052061;28;20124;-73
2022/12/07 04:30:13;;;;;;;23.65;16.60;;;;;;;;;;5051620;28;20572;-73
2022/12/07 04:32:39;;;;;;;26.42;17.17;;;;;;;;;;5052801;28;20152;-73
2022/12/07 04:35:06;;;;;;;23.13;16.65;;;;;;;;;;5052919;28;20055;-73
2022/12/07 04:37:32;;;;;;;23.88;17.00;;;;;;;;;;5052733;28;20163;-73
2022/12/07 04:39:59;;;;;;;19.58;14.82;;;;;;;;;;5052671;28;20049;-73
2022/12/07 04:42:26;;;;;;;24.27;15.53;;;;;;;;;;5053019;28;20386;-73
2022/12/07 04:44:52;;;;;;;24.42;15.48;;;;;;;;;;5052671;28;20132;-73
2022/12/07 04:47:19;;;;;;;22.45;14.88;;;;;;;;;;5052771;28;20128;-73
2022/12/07 04:49:45;;;;;;;21.25;14.38;;;;;;;;;;5052900;28;20465;-73
2022/12/07 04:52:12;;;;;;;20.40;13.93;;;;;;;;;;5052502;28;20156;-73
2022/12/07 04:54:38;;;;;;;21.60;15.05;;;;;;;;;;5052415;28;20419;-73
2022/12/07 04:57:04;;;;;;;22.65;15.70;;;;;;;;;;5052609;28;20137;-73
2022/12/07 04:59:31;;;;;;;22.63;15.52;;;;;;;;;;5052329;28;20444;-73
2022/12/07 05:01:57;;;;;;;26.42;15.85;;;;;;;;;;5052254;28;20056;-73
2022/12/07 05:04:24;;;;;;;21.48;15.52;;;;;;;;;;5052171;28;20120;-73
2022/12/07 05:06:50;;;;;;;21.75;15.45;;;;;;;;;;5052551;28;20464;-73
2022/12/07 05:09:16;;;;;;;20.58;15.10;;;;;;;;;;5052388;28;20055;-73
2022/12/07 05:11:43;;;;;;;20.45;15.32;;;;;;;;;;5052440;28;20152;-73
2022/12/07 05:14:16;;;;;;;22.85;14.75;;;;;;;;;;5052067;28;20488;-73
2022/12/07 05:16:44;;;;;;;20.40;15.80;;;;;;;;;;5052177;28;20128;-73
2022/12/07 05:19:11;;;;;;;25.13;16.13;;;;;;;;;;5050857;28;20065;-73
2022/12/07 05:21:37;;;;;;;23.70;15.43;;;;;;;;;;5051751;28;20042;-73
2022/12/07 05:24:04;;;;;;;19.90;15.23;;;;;;;;;;5051897;28;20560;-73
2022/12/07 05:26:31;;;;;;;23.50;15.27;;;;;;;;;;5051874;28;20073;-74
2022/12/07 05:28:57;;;;;;;20.60;14.98;;;;;;;;;;5052227;28;20132;-73
2022/12/07 05:31:24;;;;;;;21.65;15.88;;;;;;;;;;5051900;28;20378;-73
2022/12/07 05:33:51;;;;;;;21.93;14.87;;;;;;;;;;5052163;28;20053;-73
2022/12/07 05:36:18;;;;;;;22.40;15.07;;;;;;;;;;5051967;28;20167;-73
2022/12/07 05:38:44;;;;;;;22.50;15.07;;;;;;;;;;5051712;28;20076;-73
2022/12/07 05:44:01;;;;;;;22.08;15.20;;;;;;;;;;5051770;28;20587;-73
2022/12/07 05:46:27;;;;;;;22.67;16.02;;;;;;;;;;5051707;28;20049;-73
2022/12/07 05:48:53;;;;;;;19.92;15.18;;;;;;;;;;5051551;28;20068;-73
2022/12/07 05:51:20;;;;;;;21.60;15.05;;;;;;;;;;5051591;28;20092;-73
2022/12/07 05:53:46;;;;;;;22.90;14.38;;;;;;;;;;5051419;28;20520;-73
2022/12/07 05:56:13;;;;;;;22.80;15.05;;;;;;;;;;5051455;28;20128;-73
2022/12/07 06:01:24;;;;;;;20.80;14.52;;;;;;;;;;5051536;28;20136;-74
2022/12/07 06:03:51;;;;;;;24.92;14.73;;;;;;;;;;5051581;28;20464;-73
2022/12/07 06:06:17;;;;;;;19.33;14.13;;;;;;;;;;5051417;28;20059;-72
2022/12/07 06:08:44;;;;;;;24.73;15.15;;;;;;;;;;5051662;28;20088;-73
2022/12/07 06:13:55;;;;;;;23.70;15.50;;;;;;;;;;5051540;28;20080;-73
2022/12/07 06:16:21;;;;;;;21.80;15.25;;;;;;;;;;5051515;28;20151;-73
2022/12/07 06:18:48;;;;;;;23.33;16.85;;;;;;;;;;5051483;28;20098;-73
2022/12/07 06:21:15;;;;;;;25.38;16.58;;;;;;;;;;5051267;28;20098;-73
2022/12/07 06:23:41;;;;;;;24.40;16.70;;;;;;;;;;5051372;28;20059;-73
2022/12/07 06:26:07;;;;;;;19.70;15.40;;;;;;;;;;5051236;28;20091;-74
2022/12/07 06:28:34;;;;;;;20.77;15.00;;;;;;;;;;5049952;28;20136;-73
2022/12/07 06:31:01;;;;;;;23.27;15.25;;;;;;;;;;5051118;28;20588;-74
2022/12/07 06:33:27;;;;;;;21.88;14.93;;;;;;;;;;5051176;28;20509;-74
2022/12/07 06:35:54;;;;;;;23.70;14.80;;;;;;;;;;5054325;28;20131;-74
2022/12/07 06:38:21;;;;;;;21.95;15.07;;;;;;;;;;5055342;28;20081;-74
2022/12/07 06:40:48;;;;;;;20.40;14.90;;;;;;;;;;5054921;28;20051;-73
2022/12/07 06:43:14;;;;;;;25.20;15.93;;;;;;;;;;5054834;28;20131;-73
2022/12/07 06:45:41;;;;;;;23.45;15.10;;;;;;;;;;5055163;28;20111;-73
2022/12/07 06:48:07;;;;;;;20.13;14.13;;;;;;;;;;5053698;28;20049;-73
2022/12/07 06:50:34;;;;;;;21.95;14.23;;;;;;;;;;5042466;28;20081;-73
2022/12/07 06:53:01;;;;;;;23.48;15.18;;;;;;;;;;5041305;28;20131;-73
2022/12/07 06:55:27;;;;;;;23.85;14.95;;;;;;;;;;5054981;28;20080;-73
2022/12/07 06:57:53;;;;;;;23.08;16.00;;;;;;;;;;5042875;28;20136;-73
2022/12/07 07:00:20;;;;;;;24.05;15.18;;;;;;;;;;5034565;28;20133;-73
2022/12/07 07:02:47;;;;;;;25.75;15.35;;;;;;;;;;5034695;28;20493;-73
2022/12/07 07:05:15;;;;;;;30.35;17.80;;;;;;;;;;5034417;28;20042;-73
2022/12/07 07:07:42;;;;;;;31.02;17.55;;;;;;;;;;5034889;28;20041;-74
2022/12/07 07:10:28;;;;;;;27.77;16.65;;;;;;;;;;5034797;28;20068;-73
2022/12/07 07:12:54;;;;;;;25.35;16.15;;;;;;;;;;5034636;28;20481;-74
2022/12/07 07:15:23;;;;;;;23.65;16.08;;;;;;;;;;5034571;28;20103;-74
2022/12/07 07:17:49;;;;;;;27.75;15.75;;;;;;;;;;5034698;28;20055;-73
2022/12/07 07:20:16;;;;;;;24.67;16.38;;;;;;;;;;5034297;28;20084;-73
2022/12/07 07:22:42;;;;;;;25.48;16.02;;;;;;;;;;5051870;28;20053;-74
2022/12/07 07:25:08;;;;;;;27.77;16.17;;;;;;;;;;5054370;28;20556;-73
2022/12/07 07:27:35;;;;;;;22.52;15.57;;;;;;;;;;5053958;28;20079;-73
2022/12/07 07:30:02;;;;;;;20.20;14.27;;;;;;;;;;5054409;28;20051;-73
2022/12/07 07:32:28;;;;;;;22.38;14.25;;;;;;;;;;5054043;28;20099;-74
2022/12/07 07:34:55;;;;;;;20.15;13.90;;;;;;;;;;5053963;28;20080;-73
2022/12/07 07:37:21;;;;;;;24.33;14.85;;;;;;;;;;5054380;28;20053;-73
2022/12/07 07:39:48;;;;;;;21.55;14.90;;;;;;;;;;5054065;28;20387;-73
2022/12/07 07:42:14;;;;;;;49.30;25.25;;;;;;;;;;5052818;28;20043;-73
2022/12/07 07:44:40;;;;;;;44.80;23.00;;;;;;;;;;5041009;28;20080;-74
2022/12/07 07:47:07;;;;;;;30.55;18.67;;;;;;;;;;5050885;28;20063;-74
2022/12/07 07:49:33;;;;;;;21.73;15.05;;;;;;;;;;5052196;28;20122;-74
2022/12/07 07:52:00;;;;;;;24.65;15.23;;;;;;;;;;5053895;28;20133;-74
2022/12/07 07:54:26;;;;;;;21.48;15.45;;;;;;;;;;5053710;28;20484;-74
2022/12/07 07:56:53;;;;;;;23.15;14.45;;;;;;;;;;5053996;28;20488;-73
2022/12/07 07:59:19;;;;;;;23.10;15.60;;;;;;;;;;5053772;28;20132;-73
2022/12/07 08:01:45;;;;;;;26.15;16.88;;;;;;;;;;5053492;28;20139;-73
2022/12/07 08:04:12;;;;;;;23.50;15.82;;;;;;;;;;5053413;28;20052;-73
2022/12/07 08:06:39;;;;;;;34.22;19.50;;;;;;;;;;5053363;28;20456;-73
2022/12/07 08:09:06;;;;;;;46.38;24.08;;;;;;;;;;5053680;28;20128;-73
2022/12/07 08:11:32;;;;;;;36.15;21.42;;;;;;;;;;5053302;28;20087;-73
2022/12/07 08:13:59;;;;;;;38.33;22.50;;;;;;;;;;5053427;28;20052;-73
2022/12/07 08:16:25;;;;;;;32.28;20.33;;;;;;;;;;5053174;28;20095;-73
2022/12/07 08:18:52;;;;;;;37.53;21.05;;;;;;;;;;5051297;28;20102;-72
2022/12/07 08:21:18;;;;;;;24.50;16.42;;;;;;;;;;5052649;28;20049;-72
2022/12/07 08:23:44;;;;;;;25.30;15.82;;;;;;;;;;5053188;28;20071;-72
2022/12/07 08:26:13;;;;;;;22.75;16.60;;;;;;;;;;5053112;28;20072;-72
2022/12/07 08:28:39;;;;;;;23.23;15.45;;;;;;;;;;5049555;28;20444;-72
2022/12/07 08:31:08;;;;;;;27.60;15.85;;;;;;;;;;5034789;28;20057;-71
2022/12/07 08:33:34;;;;;;;25.25;15.85;;;;;;;;;;5037622;28;20124;-71
2022/12/07 08:36:02;;;;;;;20.65;15.80;;;;;;;;;;5053183;28;20053;-71
2022/12/07 08:38:29;;;;;;;26.95;17.05;;;;;;;;;;5052741;28;20129;-71
2022/12/07 08:40:58;;;;;;;43.58;29.50;;;;;;;;;;5052953;28;20080;-72
2022/12/07 08:43:24;;;;;;;30.13;20.10;;;;;;;;;;5051285;28;20049;-72
2022/12/07 08:46:03;;;;;;;26.33;18.67;;;;;;;;;;5030983;28;20099;-72
2022/12/07 08:48:30;;;;;;;24.15;16.92;;;;;;;;;;5045909;28;20060;-73
2022/12/07 08:50:57;;;;;;;26.23;16.65;;;;;;;;;;5052068;28;20128;-73
2022/12/07 08:53:24;;;;;;;26.13;16.15;;;;;;;;;;5052818;28;20057;-72
2022/12/07 08:55:50;;;;;;;22.88;15.40;;;;;;;;;;5052412;28;20051;-72
2022/12/07 08:58:17;;;;;;;20.45;14.63;;;;;;;;;;5051943;28;20114;-73
2022/12/07 09:00:43;;;;;;;18.52;14.07;;;;;;;;;;5052381;28;20511;-73
2022/12/07 09:03:09;;;;;;;30.00;19.60;;;;;;;;;;5052521;28;20124;-73
2022/12/07 09:05:36;;;;;;;46.90;31.35;;;;;;;;;;5052596;28;20083;-73
2022/12/07 09:08:02;;;;;;;37.67;26.27;;;;;;;;;;5052513;28;20044;-73
2022/12/07 09:10:29;;;;;;;66.70;43.38;;;;;;;;;;5052556;28;20048;-73
2022/12/07 09:12:56;;;;;;;65.72;43.45;;;;;;;;;;5052105;28;20131;-74
2022/12/07 09:15:22;;;;;;;62.88;45.28;;;;;;;;;;5052419;28;20084;-74
2022/12/07 09:17:48;;;;;;;36.47;29.08;;;;;;;;;;5051963;28;20501;-74
2022/12/07 09:20:15;;;;;;;37.10;27.65;;;;;;;;;;5052099;28;20079;-74
2022/12/07 09:22:41;;;;;;;16.52;13.73;;;;;;;;;;5050956;28;20554;-74
2022/12/07 09:25:08;;;;;;;13.38;10.95;;;;;;;;;;5045966;28;20080;-74
2022/12/07 09:27:34;;;;;;;15.10;10.75;;;;;;;;;;5034856;28;20085;-75
2022/12/07 09:30:01;;;;;;;13.88;12.20;;;;;;;;;;5037287;28;20049;-74
2022/12/07 09:32:28;;;;;;;18.17;15.23;;;;;;;;;;5052156;28;20044;-74
2022/12/07 09:34:54;;;;;;;20.77;15.65;;;;;;;;;;5051736;28;20087;-74
2022/12/07 09:37:21;;;;;;;23.33;16.07;;;;;;;;;;5051851;28;20094;-74
2022/12/07 09:39:48;;;;;;;19.08;15.68;;;;;;;;;;5051923;28;20127;-73
2022/12/07 09:42:36;;;;;;;39.20;28.17;;;;;;;;;;5035887;28;20059;-73
2022/12/07 09:45:05;;;;;;;44.90;29.23;;;;;;;;;;5051017;28;20127;-72
2022/12/07 09:47:33;;;;;;;25.88;20.30;;;;;;;;;;5037846;28;20128;-73
2022/12/07 09:50:04;;;;;;;19.63;14.63;;;;;;;;;;5048994;28;20041;-73
2022/12/07 09:52:31;;;;;;;16.73;12.88;;;;;;;;;;5046353;28;20145;-73
2022/12/07 09:55:09;;;;;;;19.75;13.13;;;;;;;;;;5041152;28;20137;-73
2022/12/07 09:57:36;;;;;;;21.60;14.00;;;;;;;;;;5049971;28;20492;-73
2022/12/07 10:00:07;;;;;;;21.48;16.08;;;;;;;;;;5051196;28;20555;-73
2022/12/07 10:02:45;;;;;;;24.88;18.60;;;;;;;;;;5051658;28;20049;-73
2022/12/07 10:05:14;;;;;;;35.83;26.55;;;;;;;;;;5050339;28;20052;-72
2022/12/07 10:07:49;;;;;;;40.38;28.88;;;;;;;;;;5051651;28;20116;-73
2022/12/07 10:10:19;;;;;;;36.75;29.23;;;;;;;;;;5052696;28;20056;-73
2022/12/07 10:12:54;;;;;;;30.98;24.73;;;;;;;;;;5055463;28;20051;-73
2022/12/07 10:15:21;;;;;;;17.58;14.10;;;;;;;;;;5055772;28;20128;-76
2022/12/07 10:17:51;;;;;;;19.48;15.07;;;;;;;;;;5055490;28;20049;-76
2022/12/07 10:20:22;;;;;;;19.63;15.82;;;;;;;;;;5055293;28;20055;-76
2022/12/07 10:22:55;;;;;;;15.07;13.23;;;;;;;;;;5053969;28;20465;-76
2022/12/07 10:25:22;;;;;;;18.05;13.48;;;;;;;;;;5055377;28;20076;-76
2022/12/07 10:28:07;;;;;;;14.55;12.38;;;;;;;;;;5055469;28;20149;-76
2022/12/07 10:30:46;;;;;;;13.90;10.82;;;;;;;;;;5055387;28;20061;-76
2022/12/07 10:33:28;;;;;;;11.88;10.68;;;;;;;;;;5053704;28;20496;-76
2022/12/07 10:35:55;;;;;;;15.40;10.80;;;;;;;;;;5055473;28;20127;-76
2022/12/07 10:38:23;;;;;;;13.52;10.05;;;;;;;;;;5053645;28;20144;-77
2022/12/07 10:41:02;;;;;;;14.05;10.30;;;;;;;;;;5054961;28;20133;-76
2022/12/07 10:43:28;;;;;;;11.13;9.57;;;;;;;;;;5054914;28;20163;-77
2022/12/07 10:46:07;;;;;;;11.48;9.52;;;;;;;;;;5047935;28;20125;-77
2022/12/07 10:48:49;;;;;;;10.98;9.40;;;;;;;;;;5049441;28;20049;-77
2022/12/07 10:51:24;;;;;;;12.43;9.00;;;;;;;;;;5055177;28;20084;-77
2022/12/07 10:54:14;;;;;;;11.82;8.73;;;;;;;;;;5054881;28;20132;-77
2022/12/07 10:56:41;;;;;;;13.00;9.75;;;;;;;;;;5050352;28;20048;-77
2022/12/07 10:59:07;;;;;;;9.57;8.25;;;;;;;;;;5034659;28;20230;-77
2022/12/07 11:01:54;;;;;;;11.57;8.05;;;;;;;;;;5042059;28;20045;-77
2022/12/07 11:04:27;;;;;;;8.70;6.22;;;;;;;;;;5054819;28;20048;-77
2022/12/07 11:07:06;;;;;;;8.18;6.40;;;;;;;;;;5037170;28;20136;-77
2022/12/07 11:09:36;;;;;;;8.63;6.70;;;;;;;;;;5054749;28;20124;-77
2022/12/07 11:12:22;;;;;;;7.57;6.82;;;;;;;;;;5053624;28;20052;-77
2022/12/07 11:14:54;;;;;;;9.32;6.53;;;;;;;;;;5054355;28;20144;-77
2022/12/07 11:17:45;;;;;;;7.82;6.10;;;;;;;;;;5053142;28;20139;-77
2022/12/07 11:20:23;;;;;;;8.07;6.30;;;;;;;;;;5054115;28;20079;-77
2022/12/07 11:22:49;;;;;;;9.00;6.78;;;;;;;;;;5054357;28;20136;-76
2022/12/07 11:25:16;;;;;;;9.82;5.97;;;;;;;;;;5053012;28;20076;-77
2022/12/07 11:27:42;;;;;;;9.10;6.63;;;;;;;;;;5046291;28;20054;-76
2022/12/07 11:30:15;;;;;;;10.35;6.57;;;;;;;;;;5047624;28;20569;-78
2022/12/07 11:32:51;;;;;;;7.75;6.45;;;;;;;;;;5054128;28;20041;-79
2022/12/07 11:35:36;;;;;;;6.72;5.38;;;;;;;;;;5054306;28;20080;-77
2022/12/07 11:38:09;;;;;;;5.40;4.85;;;;;;;;;;5053934;28;20564;-77
2022/12/07 11:40:36;;;;;;;4.85;4.10;;;;;;;;;;5054169;28;20382;-77
2022/12/07 11:43:05;;;;;;;5.53;4.35;;;;;;;;;;5052583;28;20149;-77
2022/12/07 11:45:36;;;;;;;4.43;3.88;;;;;;;;;;5053953;28;20069;-77
2022/12/07 11:48:07;;;;;;;4.70;3.65;;;;;;;;;;5052607;28;20055;-77
2022/12/07 11:50:45;;;;;;;8.38;3.78;;;;;;;;;;5053996;28;20052;-77
2022/12/07 11:53:25;;;;;;;7.13;4.38;;;;;;;;;;5048543;28;20136;-77
2022/12/07 11:55:56;;;;;;;6.00;4.82;;;;;;;;;;5044435;28;20076;-76
2022/12/07 11:58:35;;;;;;;4.97;3.75;;;;;;;;;;5053607;28;20084;-77
2022/12/07 12:01:16;;;;;;;5.03;3.97;;;;;;;;;;5053772;28;20135;-78
2022/12/07 12:03:47;;;;;;;7.43;4.28;;;;;;;;;;5052333;28;20052;-77
2022/12/07 12:06:18;;;;;;;7.10;4.38;;;;;;;;;;5037702;28;20041;-77
2022/12/07 12:08:53;;;;;;;5.80;3.83;;;;;;;;;;5053555;28;20092;-77
2022/12/07 12:11:49;;;;;;;6.05;4.82;;;;;;;;;;5053130;28;20045;-77
2022/12/07 12:14:21;;;;;;;4.90;4.40;;;;;;;;;;5053540;28;20065;-77
2022/12/07 12:17:00;;;;;;;9.73;5.65;;;;;;;;;;5053357;28;20053;-77
2022/12/07 12:19:33;;;;;;;8.13;5.68;;;;;;;;;;5053181;28;20136;-77
2022/12/07 12:22:11;;;;;;;8.25;5.57;;;;;;;;;;5052958;28;20049;-77
2022/12/07 12:24:39;;;;;;;9.45;5.80;;;;;;;;;;5053336;28;20131;-77
2022/12/07 12:27:07;;;;;;;7.97;6.10;;;;;;;;;;5053058;28;20496;-77
2022/12/07 12:29:35;;;;;;;9.60;6.40;;;;;;;;;;5053250;28;20131;-77
2022/12/07 12:32:05;;;;;;;8.70;6.03;;;;;;;;;;5051549;28;20524;-78
2022/12/07 12:34:33;;;;;;;8.95;6.10;;;;;;;;;;5043390;28;20063;-78
2022/12/07 12:36:59;;;;;;;8.25;6.00;;;;;;;;;;5045167;28;20053;-79
2022/12/07 12:39:26;;;;;;;7.57;5.70;;;;;;;;;;5044142;28;20143;-78
2022/12/07 12:44:20;;;;;;;10.38;7.30;;;;;;;;;;5052859;28;20131;-78
2022/12/07 12:46:47;;;;;;;11.68;7.18;;;;;;;;;;5052884;28;20135;-77
2022/12/07 12:49:15;;;;;;;18.08;7.72;;;;;;;;;;5051662;28;20130;-78
2022/12/07 12:51:42;;;;;;;11.73;7.40;;;;;;;;;;5051380;28;20144;-78
2022/12/07 12:54:19;;;;;;;9.18;6.55;;;;;;;;;;5034206;28;20052;-77
2022/12/07 12:56:45;;;;;;;12.35;6.18;;;;;;;;;;5032341;28;20505;-78
2022/12/07 12:59:22;;;;;;;7.88;5.35;;;;;;;;;;5039177;28;20489;-78
2022/12/07 13:02:09;;;;;;;10.65;6.30;;;;;;;;;;5044436;28;20132;-78
2022/12/07 13:04:48;;;;;;;10.30;6.33;;;;;;;;;;5050328;28;20083;-77
2022/12/07 13:07:35;;;;;;;9.27;6.07;;;;;;;;;;5049091;28;20364;-77
2022/12/07 13:10:02;;;;;;;11.13;5.57;;;;;;;;;;5052167;28;20106;-77
2022/12/07 13:12:28;;;;;;;11.77;6.00;;;;;;;;;;5052098;28;20140;-78
2022/12/07 13:14:56;;;;;;;10.10;6.65;;;;;;;;;;5051730;28;20140;-77
2022/12/07 13:17:32;;;;;;;8.50;6.30;;;;;;;;;;5052196;28;20155;-78
2022/12/07 13:20:00;;;;;;;9.63;6.60;;;;;;;;;;5052355;28;20059;-78
2022/12/07 13:22:29;;;;;;;12.23;6.65;;;;;;;;;;5050470;28;20088;-78
2022/12/07 13:25:22;;;;;;;8.50;6.47;;;;;;;;;;5051995;28;20382;-78
2022/12/07 13:28:15;;;;;;;9.73;6.80;;;;;;;;;;5044076;28;20072;-78
2022/12/07 13:30:53;;;;;;;12.98;8.93;;;;;;;;;;5051493;28;20135;-78
2022/12/07 13:33:20;;;;;;;13.25;7.90;;;;;;;;;;5051870;28;20099;-78
2022/12/07 13:35:46;;;;;;;11.23;8.40;;;;;;;;;;5050707;28;20059;-78
2022/12/07 13:38:32;;;;;;;16.25;8.45;;;;;;;;;;5051725;28;20564;-78
2022/12/07 13:41:12;;;;;;;13.43;7.75;;;;;;;;;;5051992;28;20135;-77
2022/12/07 13:43:43;;;;;;;12.05;7.55;;;;;;;;;;5050393;28;20124;-77
2022/12/07 13:46:16;;;;;;;8.73;7.00;;;;;;;;;;5050745;28;20049;-77
2022/12/07 13:48:45;;;;;;;15.13;8.27;;;;;;;;;;5051604;28;20444;-77
2022/12/07 13:51:34;;;;;;;19.27;9.77;;;;;;;;;;5032547;28;20468;-77
2022/12/07 13:54:08;;;;;;;12.15;6.57;;;;;;;;;;5034458;28;20396;-77
2022/12/07 13:56:35;;;;;;;8.98;5.78;;;;;;;;;;5051544;28;20084;-80
2022/12/07 13:59:02;;;;;;;11.68;5.50;;;;;;;;;;5050511;28;20045;-80
2022/12/07 14:01:30;;;;;;;7.95;5.68;;;;;;;;;;5051599;28;20049;-80
2022/12/07 14:04:16;;;;;;;10.07;5.05;;;;;;;;;;5036910;28;20405;-79
2022/12/07 14:06:50;;;;;;;8.13;5.80;;;;;;;;;;5050194;28;20084;-79
2022/12/07 14:09:16;;;;;;;10.40;5.70;;;;;;;;;;5043180;28;20540;-80
2022/12/07 14:11:43;;;;;;;8.38;5.07;;;;;;;;;;5040188;28;20135;-78
2022/12/07 14:14:13;;;;;;;10.93;5.32;;;;;;;;;;5051640;28;20137;-79
2022/12/07 14:16:40;;;;;;;8.55;4.90;;;;;;;;;;5051338;28;20048;-78
2022/12/07 14:19:26;;;;;;;6.60;4.90;;;;;;;;;;5051384;28;20053;-79
2022/12/07 14:22:09;;;;;;;9.93;4.40;;;;;;;;;;5051075;28;20049;-80
2022/12/07 14:24:42;;;;;;;7.28;4.55;;;;;;;;;;5050157;28;20139;-80
2022/12/07 14:27:19;;;;;;;11.05;4.90;;;;;;;;;;5051664;28;20452;-79
2022/12/07 14:29:46;;;;;;;10.63;4.10;;;;;;;;;;5050040;28;20526;-80
2022/12/07 14:32:13;;;;;;;8.50;3.90;;;;;;;;;;5050263;28;20404;-80
2022/12/07 14:34:39;;;;;;;8.35;4.20;;;;;;;;;;5038906;28;20061;-79
2022/12/07 14:37:08;;;;;;;9.50;4.90;;;;;;;;;;5048220;28;20053;-78
2022/12/07 14:39:35;;;;;;;9.82;4.97;;;;;;;;;;5051488;28;20053;-79
2022/12/07 14:42:01;;;;;;;9.82;4.78;;;;;;;;;;5050901;28;20080;-79
2022/12/07 14:44:28;;;;;;;7.47;5.00;;;;;;;;;;5051387;28;20080;-79
2022/12/07 14:47:01;;;;;;;9.75;5.03;;;;;;;;;;5050077;28;20069;-79
2022/12/07 14:49:47;;;;;;;7.43;4.97;;;;;;;;;;5050965;28;20044;-79